Flight Track Log - Related Links

Times and Time Zones

All times are in EDT time to prevent confusion due to time zone crossing. See the HAL118 flight status page for this flight to view local times or setup timezone preferences in your user account.

Time Position Orientation Groundspeed Altitude Reporting Facility
EDT Latitude Longitude Course Direction KTS MPH feet Rate Location/Type
Sat 01:19:55 PM 21.3167 -157.9000 118° Southeast 180 207 800  Level Honolulu Center
Sat 01:20:55 PM 21.2667 -157.8500 137° Southeast 230 265 2,500 1,750 Climbing Honolulu Center
Sat 01:21:55 PM 21.2333 -157.7833 118° Southeast 280 322 4,300 2,300 Climbing Honolulu Center
Sat 01:22:00 PM 21.1936 -157.7341 113° Southeast  Level FlightAware Approximate
Sat 01:22:55 PM 21.2000 -157.7167 118° Southeast 270 311 7,100  Level Honolulu Center
Sat 01:23:00 PM 21.1653 -157.6647 126° Southeast  Level FlightAware Approximate
Sat 01:23:55 PM 21.1500 -157.6500 129° Southeast 290 334 9,300  Level Honolulu Center
Sat 01:24:00 PM 21.1242 -157.6030 126° Southeast  Level FlightAware Approximate
Sat 01:24:55 PM 21.1000 -157.5833 129° Southeast 310 357 11,100  Level Honolulu Center
Sat 01:25:00 PM 21.0863 -157.5393 118° Southeast  Level FlightAware Approximate
Sat 01:25:55 PM 21.0500 -157.4833 118° Southeast 350 403 12,600  Level Honolulu Center
Sat 01:26:55 PM 21.0000 -157.4000 123° Southeast 370 426 14,400 1,835 Climbing Honolulu Center
Sat 01:27:56 PM 20.9500 -157.3000 118° Southeast 380 437 16,300 1,686 Climbing Honolulu Center
Sat 01:28:56 PM 20.9000 -157.2000 118° Southeast 400 460 17,800 1,900 Climbing Honolulu Center
Sat 01:29:56 PM 20.8167 -157.1167 137° Southeast 390 449 20,100 1,600 Climbing Honolulu Center
Sat 01:30:56 PM 20.7500 -157.0167 125° Southeast 400 460 21,000 450 Climbing Honolulu Center
Sat 01:31:56 PM 20.6667 -156.9167 132° Southeast 440 506 21,000  Level Honolulu Center
Sat 01:32:56 PM 20.5833 -156.8333 137° Southeast 440 506 21,000  Level Honolulu Center
Sat 01:33:56 PM 20.5000 -156.7167 127° Southeast 450 518 21,000 -1,000 Level Honolulu Center
Sat 01:34:56 PM 20.4167 -156.6333 137° Southeast 430 495 19,000 -2,700 Descending Honolulu Center
Sat 01:35:56 PM 20.3333 -156.5333 132° Southeast 430 495 15,600 -3,200 Descending Honolulu Center
Sat 01:36:56 PM 20.2667 -156.4500 130° Southeast 400 460 12,600 -2,926 Descending Honolulu Center
Sat 01:37:57 PM 20.1833 -156.3667 137° Southeast 370 426 9,700 -2,083 Descending Honolulu Center
Sat 01:38:57 PM 20.1333 -156.3000 129° Southeast 340 391 8,400 -1,400 Descending Honolulu Center
Sat 01:39:57 PM 20.0833 -156.2333 129° Southeast 280 322 6,900 -1,600 Descending Honolulu Center
Sat 01:40:57 PM 20.0167 -156.1667 137° Southeast 280 322 5,200 -1,750 Descending Honolulu Center
Sat 01:41:57 PM 19.9667 -156.1167 137° Southeast 260 299 3,400 -1,100 Descending Honolulu Center
Sat 01:42:57 PM 19.9333 -156.0500 118° Southeast 230 265 3,000 -400 Descending Honolulu Center

Login

Don't have an account? Register now (free) for customized features, flight alerts, and more!